Time;durP1;ratioP1;P1;durP2;ratioP2;P2;SDS_P1;SDS_P2;PMS_P1;PMS_P2;Temp;Humidity;BMP_temperature;BMP_pressure;BME280_temperature;BME280_humidity;BME280_pressure;Samples;Min_cycle;Max_cycle;Signal;HPM_P1;HPM_P2
2023/05/23 00:01:37;;;;;;;14.07;8.20;;;16.00;99.90;;;;;;5013181;28;20197;-57
2023/05/23 00:04:03;;;;;;;24.33;11.02;;;16.00;99.90;;;;;;5021780;28;20417;-56
2023/05/23 00:06:29;;;;;;;20.45;10.23;;;16.00;99.90;;;;;;5021635;28;20336;-57
2023/05/23 00:08:55;;;;;;;25.45;12.20;;;16.00;99.90;;;;;;5017859;28;20124;-57
2023/05/23 00:11:25;;;;;;;29.50;10.95;;;16.00;99.90;;;;;;5020974;28;20093;-57
2023/05/23 00:13:51;;;;;;;25.08;11.52;;;15.90;99.90;;;;;;5019993;28;20045;-58
2023/05/23 00:16:18;;;;;;;24.05;11.57;;;16.00;99.90;;;;;;5016545;28;20586;-57
2023/05/23 00:18:44;;;;;;;23.52;12.00;;;15.90;99.90;;;;;;5018575;28;20065;-57
2023/05/23 00:21:12;;;;;;;22.25;11.27;;;16.00;99.90;;;;;;5015543;28;20038;-57
2023/05/23 00:23:41;;;;;;;26.45;11.38;;;16.00;99.90;;;;;;5018273;28;20046;-57
2023/05/23 00:26:07;;;;;;;22.13;10.95;;;16.00;99.90;;;;;;5021224;28;20081;-57
2023/05/23 00:28:33;;;;;;;18.88;10.63;;;16.00;99.90;;;;;;5020821;28;20037;-57
2023/05/23 00:30:58;;;;;;;20.60;9.02;;;16.00;99.90;;;;;;5019409;28;20045;-57
2023/05/23 00:33:24;;;;;;;30.10;14.52;;;16.00;99.90;;;;;;5019409;28;20133;-57
2023/05/23 00:35:50;;;;;;;18.90;11.50;;;16.00;99.90;;;;;;5016744;28;22617;-57
2023/05/23 00:38:16;;;;;;;23.13;10.75;;;16.00;99.90;;;;;;5017141;28;20042;-57
2023/05/23 00:40:42;;;;;;;18.35;10.93;;;16.00;99.90;;;;;;5009946;28;20112;-58
2023/05/23 00:43:07;;;;;;;22.55;11.88;;;15.90;99.90;;;;;;5015854;28;20045;-57
2023/05/23 00:45:33;;;;;;;22.42;12.02;;;16.00;99.90;;;;;;5019974;28;20053;-57
2023/05/23 00:48:00;;;;;;;21.67;9.88;;;16.00;99.90;;;;;;5020059;28;20456;-57
2023/05/23 00:50:30;;;;;;;18.67;11.40;;;15.90;99.90;;;;;;5021326;28;20044;-57
2023/05/23 00:52:59;;;;;;;24.15;10.80;;;15.90;99.90;;;;;;5015698;28;20130;-57
2023/05/23 00:55:25;;;;;;;24.08;11.60;;;16.00;99.90;;;;;;5015933;28;20502;-57
2023/05/23 00:57:54;;;;;;;28.23;13.88;;;15.90;99.90;;;;;;5019214;28;20038;-57
2023/05/23 01:00:21;;;;;;;16.45;8.15;;;15.90;99.90;;;;;;4999988;28;20037;-57
2023/05/23 01:02:50;;;;;;;19.13;11.50;;;15.90;99.90;;;;;;5016976;28;20047;-58
2023/05/23 01:05:16;;;;;;;24.70;10.35;;;15.80;99.90;;;;;;5018525;28;20897;-57
2023/05/23 01:07:43;;;;;;;28.20;10.95;;;15.90;99.90;;;;;;5021395;28;20049;-59
2023/05/23 01:10:10;;;;;;;25.02;10.73;;;15.90;99.90;;;;;;5015419;28;20713;-57
2023/05/23 01:13:04;;;;;;;16.75;9.82;;;15.80;99.90;;;;;;5018851;28;20096;-57
2023/05/23 01:15:55;;;;;;;13.68;7.88;;;15.80;99.90;;;;;;5001179;28;20045;-57
2023/05/23 01:18:45;;;;;;;19.85;9.35;;;15.80;99.90;;;;;;5019236;28;20063;-57
2023/05/23 01:21:13;;;;;;;22.23;11.05;;;15.70;99.90;;;;;;5017319;28;20033;-57
2023/05/23 01:24:23;;;;;;;26.67;10.02;;;15.70;99.90;;;;;;5018849;28;20523;-58
2023/05/23 01:27:07;;;;;;;20.98;8.73;;;15.70;99.90;;;;;;5015795;28;20042;-58
2023/05/23 01:29:45;;;;;;;24.48;10.85;;;15.70;99.90;;;;;;5010421;28;20084;-57
2023/05/23 01:32:13;;;;;;;26.73;12.90;;;15.70;99.90;;;;;;5015153;28;20181;-57
2023/05/23 01:34:40;;;;;;;19.73;9.85;;;15.70;99.90;;;;;;5016585;28;20042;-57
2023/05/23 01:37:10;;;;;;;26.23;11.98;;;15.70;99.90;;;;;;5051624;28;20048;-58
2023/05/23 01:39:37;;;;;;;15.38;9.02;;;15.70;99.90;;;;;;5018193;28;20050;-57
2023/05/23 01:42:03;;;;;;;23.85;10.20;;;15.70;99.90;;;;;;5017537;28;21499;-57
2023/05/23 01:44:30;;;;;;;25.70;11.77;;;15.60;99.90;;;;;;5017356;28;20947;-57
2023/05/23 01:46:56;;;;;;;17.83;9.52;;;15.60;99.90;;;;;;5020435;28;20733;-57
2023/05/23 01:49:22;;;;;;;19.17;10.50;;;15.70;99.90;;;;;;5019344;28;20235;-58
2023/05/23 01:51:49;;;;;;;19.25;9.85;;;15.60;99.90;;;;;;5021025;28;20048;-57
2023/05/23 01:54:16;;;;;;;20.15;10.50;;;15.60;99.90;;;;;;5019866;28;20046;-58
2023/05/23 01:56:42;;;;;;;20.42;11.38;;;15.70;99.90;;;;;;5021447;28;20041;-57
2023/05/23 01:59:08;;;;;;;19.33;10.30;;;15.60;99.90;;;;;;5017011;28;20052;-57
2023/05/23 02:01:34;;;;;;;18.85;8.18;;;15.60;99.90;;;;;;5011899;28;20046;-57
2023/05/23 02:04:00;;;;;;;14.18;7.65;;;15.50;99.90;;;;;;5015914;28;20536;-57
2023/05/23 02:06:26;;;;;;;18.23;10.75;;;15.50;99.90;;;;;;5018369;28;20050;-57
2023/05/23 02:08:51;;;;;;;18.13;7.63;;;15.60;99.90;;;;;;5017873;28;20589;-57
2023/05/23 02:11:17;;;;;;;21.15;10.48;;;15.50;99.90;;;;;;5017850;28;20471;-57
2023/05/23 02:13:43;;;;;;;22.10;8.30;;;15.50;99.90;;;;;;5018249;28;20049;-57
2023/05/23 02:16:08;;;;;;;19.75;8.93;;;15.50;99.90;;;;;;5016622;28;20168;-57
2023/05/23 02:18:37;;;;;;;22.13;11.57;;;15.50;99.90;;;;;;5015714;28;20060;-57
2023/05/23 02:21:04;;;;;;;16.13;10.25;;;15.50;99.90;;;;;;5020085;28;20547;-58
2023/05/23 02:23:30;;;;;;;18.10;10.60;;;15.50;99.90;;;;;;5017625;28;20121;-57
2023/05/23 02:25:56;;;;;;;19.15;10.82;;;15.50;99.90;;;;;;5017766;28;20431;-57
2023/05/23 02:28:21;;;;;;;21.08;10.07;;;15.50;99.90;;;;;;5014015;28;21238;-58
2023/05/23 02:30:47;;;;;;;16.48;9.65;;;15.50;99.90;;;;;;5016199;28;20042;-57
2023/05/23 02:33:13;;;;;;;16.83;8.60;;;15.50;99.90;;;;;;5013665;28;20088;-57
2023/05/23 02:35:39;;;;;;;20.33;10.70;;;15.50;99.90;;;;;;5019896;28;20172;-57
2023/05/23 02:38:05;;;;;;;15.98;9.63;;;15.50;99.90;;;;;;5018634;28;20089;-57
2023/05/23 02:40:30;;;;;;;20.75;9.60;;;15.50;99.90;;;;;;5019914;28;20049;-57
2023/05/23 02:42:56;;;;;;;18.17;10.25;;;15.50;99.90;;;;;;5017351;28;20077;-58
2023/05/23 02:45:23;;;;;;;16.77;8.88;;;15.50;99.90;;;;;;5018818;28;20789;-57
2023/05/23 02:47:49;;;;;;;20.63;9.93;;;15.50;99.90;;;;;;5024810;28;20512;-57
2023/05/23 02:50:15;;;;;;;18.95;10.02;;;15.50;99.90;;;;;;5011593;28;20050;-58
2023/05/23 02:52:43;;;;;;;14.43;9.27;;;15.50;99.90;;;;;;5014708;28;20046;-57
2023/05/23 02:55:09;;;;;;;18.92;9.82;;;15.50;99.90;;;;;;5018444;28;20045;-57
2023/05/23 02:57:35;;;;;;;16.40;9.40;;;15.50;99.90;;;;;;5021809;28;20520;-57
2023/05/23 03:00:01;;;;;;;19.05;11.20;;;15.50;99.90;;;;;;5021537;28;20610;-57
2023/05/23 03:02:26;;;;;;;16.63;10.15;;;15.50;99.90;;;;;;5023573;28;20048;-57
2023/05/23 03:04:52;;;;;;;16.23;9.20;;;15.50;99.90;;;;;;5020580;28;20053;-58
2023/05/23 03:07:18;;;;;;;16.75;10.88;;;15.50;99.90;;;;;;5020441;28;20111;-57
2023/05/23 03:09:43;;;;;;;17.02;11.02;;;15.50;99.90;;;;;;5019265;28;20510;-57
2023/05/23 03:12:09;;;;;;;22.13;11.43;;;15.50;99.90;;;;;;5021113;28;20048;-57
2023/05/23 03:14:35;;;;;;;21.15;10.43;;;15.50;99.90;;;;;;5021725;28;20157;-58
2023/05/23 03:17:02;;;;;;;18.02;9.65;;;15.50;99.90;;;;;;5020391;28;20057;-57
2023/05/23 03:19:28;;;;;;;19.33;11.07;;;15.40;99.90;;;;;;5021986;28;20841;-57
2023/05/23 03:21:54;;;;;;;23.65;12.55;;;15.40;99.90;;;;;;5016715;28;20041;-57
2023/05/23 03:24:19;;;;;;;19.33;10.27;;;15.40;99.90;;;;;;5020723;28;20046;-58
2023/05/23 03:26:45;;;;;;;16.73;9.25;;;15.40;99.90;;;;;;5019167;28;20046;-57
2023/05/23 03:29:11;;;;;;;21.05;9.40;;;15.40;99.90;;;;;;5023417;28;20052;-58
2023/05/23 03:31:36;;;;;;;18.25;11.15;;;15.40;99.90;;;;;;5017678;28;20041;-58
2023/05/23 03:34:04;;;;;;;17.58;8.18;;;15.40;99.90;;;;;;5020440;28;20068;-57
2023/05/23 03:36:32;;;;;;;20.20;9.02;;;15.40;99.90;;;;;;5022544;28;20045;-58
2023/05/23 03:38:58;;;;;;;16.42;7.82;;;15.40;99.90;;;;;;5020949;28;20108;-58
2023/05/23 03:41:25;;;;;;;16.75;9.82;;;15.40;99.90;;;;;;5021617;28;20088;-57
2023/05/23 03:43:50;;;;;;;14.73;8.55;;;15.30;99.90;;;;;;5009915;28;20535;-57
2023/05/23 03:46:16;;;;;;;20.40;8.75;;;15.30;99.90;;;;;;5017568;28;20547;-57
2023/05/23 03:48:42;;;;;;;19.90;9.73;;;15.30;99.90;;;;;;5023454;28;20290;-57
2023/05/23 03:51:08;;;;;;;16.15;8.38;;;15.30;99.90;;;;;;5013266;28;20048;-57
2023/05/23 03:53:33;;;;;;;16.08;10.30;;;15.30;99.90;;;;;;5019283;28;20073;-57
2023/05/23 03:55:59;;;;;;;12.73;9.15;;;15.30;99.90;;;;;;5018149;28;20049;-57
2023/05/23 03:58:25;;;;;;;17.77;10.55;;;15.30;99.90;;;;;;5018742;28;20124;-58
2023/05/23 04:00:51;;;;;;;18.90;10.85;;;15.20;99.90;;;;;;5015570;28;20042;-57
2023/05/23 04:03:17;;;;;;;22.98;10.90;;;15.30;99.90;;;;;;5014679;28;20137;-57
2023/05/23 04:05:43;;;;;;;18.13;10.65;;;15.20;99.90;;;;;;5015314;28;20041;-57
2023/05/23 04:08:09;;;;;;;18.00;11.65;;;15.20;99.90;;;;;;5019805;28;20416;-57
2023/05/23 04:10:35;;;;;;;18.88;11.40;;;15.20;99.90;;;;;;5018289;28;20077;-57
2023/05/23 04:13:00;;;;;;;20.38;10.25;;;15.20;99.90;;;;;;5018089;28;20042;-57
2023/05/23 04:15:26;;;;;;;15.95;9.73;;;15.20;99.90;;;;;;5018096;28;20045;-57
2023/05/23 04:17:53;;;;;;;17.40;9.95;;;15.20;99.90;;;;;;5020837;28;20042;-57
2023/05/23 04:20:18;;;;;;;34.25;12.77;;;15.20;99.90;;;;;;5014517;28;20120;-57
2023/05/23 04:22:44;;;;;;;22.00;13.00;;;15.20;99.90;;;;;;5019987;28;20132;-57
2023/05/23 04:25:10;;;;;;;26.48;12.85;;;15.10;99.90;;;;;;5015882;28;20102;-57
2023/05/23 04:27:38;;;;;;;22.38;15.65;;;15.20;99.90;;;;;;5015321;28;20136;-57
2023/05/23 04:30:08;;;;;;;21.73;12.38;;;15.10;99.90;;;;;;5011928;28;20175;-57
2023/05/23 04:32:34;;;;;;;22.45;11.55;;;15.10;99.90;;;;;;5011974;28;20049;-57
2023/05/23 04:35:01;;;;;;;27.15;14.55;;;15.00;99.90;;;;;;5013476;28;20050;-59
2023/05/23 04:37:27;;;;;;;20.15;13.27;;;15.00;99.90;;;;;;5007963;28;20052;-57
2023/05/23 04:39:53;;;;;;;21.95;13.13;;;15.00;99.90;;;;;;5007773;28;20045;-58
2023/05/23 04:42:23;;;;;;;27.98;14.98;;;15.00;99.90;;;;;;5010524;28;20053;-57
2023/05/23 04:44:50;;;;;;;26.90;14.48;;;14.90;99.90;;;;;;5010878;28;20057;-57
2023/05/23 04:47:16;;;;;;;22.88;14.98;;;15.00;99.90;;;;;;5011138;28;20038;-57
2023/05/23 04:49:42;;;;;;;30.58;16.58;;;15.00;99.90;;;;;;5009591;28;20045;-57
2023/05/23 04:52:09;;;;;;;33.85;17.83;;;14.90;99.90;;;;;;5012704;28;20054;-58
2023/05/23 04:54:36;;;;;;;24.73;15.75;;;15.00;99.90;;;;;;5010871;28;20046;-57
2023/05/23 04:57:02;;;;;;;25.33;14.02;;;15.00;99.90;;;;;;5011055;28;20077;-57
2023/05/23 04:59:28;;;;;;;26.45;14.73;;;15.00;99.90;;;;;;5018021;28;20046;-58
2023/05/23 05:01:53;;;;;;;35.33;15.52;;;15.00;99.90;;;;;;5013842;28;20038;-57
2023/05/23 05:04:19;;;;;;;24.13;12.82;;;15.00;99.90;;;;;;5012795;28;20504;-57
2023/05/23 05:06:47;;;;;;;23.38;12.07;;;15.00;99.90;;;;;;5012175;28;20038;-57
2023/05/23 05:09:13;;;;;;;25.55;14.10;;;15.00;99.90;;;;;;5016555;28;20590;-57
2023/05/23 05:11:39;;;;;;;22.50;11.65;;;14.90;99.90;;;;;;5021864;28;20511;-57
2023/05/23 05:14:05;;;;;;;24.05;13.35;;;14.90;99.90;;;;;;5015493;28;20053;-57
2023/05/23 05:16:30;;;;;;;27.13;14.95;;;14.80;99.90;;;;;;5013625;28;20095;-57
2023/05/23 05:18:56;;;;;;;20.52;10.60;;;14.80;99.90;;;;;;5013041;28;20042;-58
2023/05/23 05:21:22;;;;;;;25.85;13.88;;;14.70;99.90;;;;;;5016749;28;20508;-57
2023/05/23 05:23:47;;;;;;;25.85;12.48;;;14.70;99.90;;;;;;5019025;28;20052;-57
2023/05/23 05:26:13;;;;;;;24.50;12.25;;;14.60;99.90;;;;;;5018599;28;20108;-58
2023/05/23 05:28:40;;;;;;;28.50;13.82;;;14.70;99.90;;;;;;5046595;28;20045;-57
2023/05/23 05:31:05;;;;;;;24.35;12.70;;;14.70;99.90;;;;;;5022797;28;20050;-57
2023/05/23 05:33:34;;;;;;;28.83;15.85;;;14.70;99.90;;;;;;5022970;28;20803;-57
2023/05/23 05:36:05;;;;;;;26.05;16.23;;;14.70;99.90;;;;;;5019433;28;20045;-56
2023/05/23 05:38:31;;;;;;;24.63;10.45;;;14.70;99.90;;;;;;5021791;28;20164;-60
2023/05/23 05:40:57;;;;;;;20.35;10.38;;;14.70;99.90;;;;;;5014630;28;20049;-58
2023/05/23 05:43:23;;;;;;;21.58;12.32;;;14.70;99.90;;;;;;5010138;28;20046;-57
2023/05/23 05:45:48;;;;;;;21.55;12.68;;;14.70;99.90;;;;;;5026013;28;20720;-57
2023/05/23 05:48:15;;;;;;;21.92;13.15;;;14.70;99.90;;;;;;5008284;28;20061;-56
2023/05/23 05:50:44;;;;;;;18.10;10.85;;;14.70;99.90;;;;;;5013447;28;20086;-57
2023/05/23 05:53:10;;;;;;;15.32;8.95;;;14.70;99.90;;;;;;5004906;28;20058;-57
2023/05/23 05:55:36;;;;;;;19.83;11.45;;;14.70;99.90;;;;;;5017341;28;20072;-57
2023/05/23 05:58:02;;;;;;;28.17;12.18;;;14.70;99.90;;;;;;5012606;28;20520;-56
2023/05/23 06:00:28;;;;;;;17.63;11.10;;;14.70;99.90;;;;;;5009567;28;20042;-56
2023/05/23 06:02:56;;;;;;;16.95;9.23;;;14.70;99.90;;;;;;5011325;28;20045;-57
2023/05/23 06:05:22;;;;;;;19.52;11.88;;;14.70;99.90;;;;;;5009151;28;20077;-56
2023/05/23 06:07:48;;;;;;;20.35;11.45;;;14.60;99.90;;;;;;5010457;28;20044;-56
2023/05/23 06:10:15;;;;;;;21.85;10.10;;;14.60;99.90;;;;;;5021503;28;20096;-56
2023/05/23 06:12:41;;;;;;;23.58;10.85;;;14.60;99.90;;;;;;5016284;28;20046;-56
2023/05/23 06:15:08;;;;;;;20.52;11.10;;;14.60;99.90;;;;;;5020206;28;20117;-56
2023/05/23 06:17:34;;;;;;;20.73;10.60;;;14.60;99.90;;;;;;5023218;28;20042;-57
2023/05/23 06:20:00;;;;;;;16.52;11.02;;;14.60;99.90;;;;;;5023983;28;20145;-56
2023/05/23 06:22:26;;;;;;;21.58;11.07;;;14.70;99.90;;;;;;5024464;28;20046;-56
2023/05/23 06:24:51;;;;;;;22.58;11.25;;;14.60;99.90;;;;;;5026115;28;20052;-57
2023/05/23 06:27:17;;;;;;;16.65;9.20;;;14.70;99.90;;;;;;5023282;28;20606;-57
2023/05/23 06:29:43;;;;;;;26.58;11.77;;;14.70;99.90;;;;;;5017713;28;20046;-57
2023/05/23 06:32:08;;;;;;;19.83;11.20;;;14.70;99.90;;;;;;5018891;28;20060;-57
2023/05/23 06:34:34;;;;;;;13.35;7.45;;;14.70;99.90;;;;;;5021614;28;20049;-57
2023/05/23 06:37:00;;;;;;;18.00;9.10;;;14.70;99.90;;;;;;5025138;28;20078;-58
2023/05/23 06:39:25;;;;;;;17.65;7.82;;;14.70;99.90;;;;;;5024788;28;20080;-57
2023/05/23 06:41:52;;;;;;;16.65;9.73;;;14.70;99.90;;;;;;5026621;28;20579;-61
2023/05/23 06:44:18;;;;;;;18.38;9.70;;;14.60;99.90;;;;;;5025019;28;20042;-62
2023/05/23 06:46:47;;;;;;;16.75;10.75;;;14.60;99.90;;;;;;5022172;28;20058;-61
2023/05/23 06:49:13;;;;;;;23.17;9.68;;;14.70;99.90;;;;;;5017831;28;20042;-62
2023/05/23 06:51:39;;;;;;;23.27;8.93;;;14.70;99.90;;;;;;5011903;28;20046;-62
2023/05/23 06:54:05;;;;;;;17.60;9.25;;;14.70;99.90;;;;;;5017461;28;20121;-61
2023/05/23 06:56:31;;;;;;;12.40;7.93;;;14.80;99.90;;;;;;5018527;28;20037;-62
2023/05/23 06:58:57;;;;;;;12.07;8.38;;;14.80;99.90;;;;;;5023488;28;20053;-61
2023/05/23 07:01:23;;;;;;;15.50;7.50;;;14.80;99.90;;;;;;5021856;28;20601;-61
2023/05/23 07:03:49;;;;;;;12.93;7.78;;;14.80;99.90;;;;;;5023051;28;20107;-61
2023/05/23 07:06:15;;;;;;;14.63;8.43;;;14.70;99.90;;;;;;5022006;28;20543;-61
2023/05/23 07:08:40;;;;;;;11.93;6.85;;;14.80;99.90;;;;;;5018226;28;20054;-63
2023/05/23 07:11:06;;;;;;;14.13;7.95;;;14.80;99.90;;;;;;5022085;28;20133;-62
2023/05/23 07:13:32;;;;;;;14.68;7.38;;;14.80;99.90;;;;;;5025307;28;20141;-62
2023/05/23 07:15:58;;;;;;;12.07;6.65;;;14.90;99.90;;;;;;5023091;28;20125;-63
2023/05/23 07:18:24;;;;;;;13.85;7.70;;;14.90;99.90;;;;;;5025550;28;20407;-63
2023/05/23 07:20:50;;;;;;;14.55;6.28;;;14.90;99.90;;;;;;5017522;28;20049;-63
2023/05/23 07:23:15;;;;;;;12.50;7.60;;;14.90;99.90;;;;;;5024103;28;20424;-63
2023/05/23 07:25:41;;;;;;;11.07;5.95;;;15.00;99.90;;;;;;5020765;28;20042;-63
2023/05/23 07:28:08;;;;;;;13.43;7.72;;;15.00;99.90;;;;;;5024965;28;20108;-63
2023/05/23 07:30:34;;;;;;;15.85;6.75;;;15.00;99.90;;;;;;5024240;28;20046;-63
2023/05/23 07:32:59;;;;;;;13.50;7.13;;;15.00;99.90;;;;;;5024264;28;20555;-57
2023/05/23 07:35:25;;;;;;;13.27;7.60;;;15.00;99.90;;;;;;5020349;28;20049;-57
2023/05/23 07:37:54;;;;;;;14.70;8.55;;;15.00;99.90;;;;;;5022053;28;20043;-57
2023/05/23 07:40:21;;;;;;;12.32;7.80;;;15.10;99.90;;;;;;5004138;28;20037;-57
2023/05/23 07:42:47;;;;;;;9.10;4.90;;;15.10;99.90;;;;;;5024875;28;20042;-57
2023/05/23 07:45:13;;;;;;;11.38;8.23;;;15.10;99.90;;;;;;5024924;28;20588;-58
2023/05/23 07:47:39;;;;;;;10.93;7.88;;;15.10;99.90;;;;;;5022979;28;20504;-57
2023/05/23 07:50:05;;;;;;;13.80;7.38;;;15.10;99.90;;;;;;5021784;28;20050;-57
2023/05/23 07:52:31;;;;;;;11.63;7.15;;;15.10;99.90;;;;;;5025410;28;20073;-57
2023/05/23 07:54:58;;;;;;;14.27;7.28;;;15.10;99.90;;;;;;5022675;28;20045;-57
2023/05/23 07:57:24;;;;;;;9.75;6.65;;;15.10;99.90;;;;;;5019683;28;20042;-57
2023/05/23 07:59:51;;;;;;;15.15;8.20;;;15.20;99.90;;;;;;5024813;28;20528;-57
2023/05/23 08:02:17;;;;;;;11.63;6.93;;;15.20;99.90;;;;;;5022312;28;20981;-57
2023/05/23 08:04:43;;;;;;;6.72;4.25;;;15.10;99.90;;;;;;5024533;28;20150;-57
2023/05/23 08:07:10;;;;;;;12.02;6.68;;;15.20;99.90;;;;;;5023651;28;20054;-58
2023/05/23 08:09:39;;;;;;;12.80;7.55;;;15.20;99.90;;;;;;5025189;28;20046;-57
2023/05/23 08:12:06;;;;;;;11.40;7.38;;;15.20;99.90;;;;;;5025006;28;20089;-57
2023/05/23 08:14:32;;;;;;;14.48;7.47;;;15.10;99.90;;;;;;5025926;28;20487;-57
2023/05/23 08:16:58;;;;;;;14.75;8.35;;;15.20;99.90;;;;;;5024431;28;20061;-57
2023/05/23 08:19:23;;;;;;;14.20;8.07;;;15.20;99.90;;;;;;5024309;28;20053;-57
2023/05/23 08:21:51;;;;;;;13.18;6.55;;;15.20;99.90;;;;;;5023214;28;20049;-57
2023/05/23 08:24:18;;;;;;;14.23;8.80;;;15.20;99.90;;;;;;5024751;28;20053;-57
2023/05/23 08:26:44;;;;;;;10.90;7.13;;;15.20;99.90;;;;;;5025816;28;20599;-57
2023/05/23 08:29:09;;;;;;;11.60;7.32;;;15.30;99.90;;;;;;5023992;28;20175;-57
2023/05/23 08:31:35;;;;;;;14.43;7.63;;;15.30;99.90;;;;;;5023236;28;20042;-57
2023/05/23 08:34:01;;;;;;;12.85;6.88;;;15.30;99.90;;;;;;5022665;28;20114;-56
2023/05/23 08:36:26;;;;;;;12.75;6.88;;;15.30;99.90;;;;;;5023723;28;20488;-57
2023/05/23 08:38:52;;;;;;;10.15;6.22;;;15.30;99.90;;;;;;5023547;28;20111;-57
2023/05/23 08:41:20;;;;;;;20.15;8.02;;;15.40;99.90;;;;;;5025041;28;20677;-58
2023/05/23 08:43:46;;;;;;;16.25;7.63;;;15.40;99.90;;;;;;5024142;28;20041;-58
2023/05/23 08:46:13;;;;;;;15.95;9.18;;;15.50;99.90;;;;;;5021049;28;20614;-57
2023/05/23 08:48:40;;;;;;;12.07;6.50;;;15.40;99.90;;;;;;5024450;28;20065;-57
2023/05/23 08:51:12;;;;;;;12.90;7.13;;;15.40;99.90;;;;;;5023391;28;20046;-57
2023/05/23 08:53:41;;;;;;;12.63;6.88;;;15.50;99.90;;;;;;5023165;28;20104;-58
2023/05/23 08:56:09;;;;;;;13.05;7.57;;;15.50;99.90;;;;;;5022901;28;20046;-57
2023/05/23 08:58:35;;;;;;;18.08;9.00;;;15.40;99.90;;;;;;5022718;28;20041;-57
2023/05/23 09:01:01;;;;;;;8.57;4.45;;;15.40;99.90;;;;;;5023746;28;20527;-57
2023/05/23 09:03:27;;;;;;;15.75;7.45;;;15.40;99.90;;;;;;5022140;28;20042;-57
2023/05/23 09:05:56;;;;;;;13.90;7.13;;;15.50;99.90;;;;;;5024621;28;20038;-57
2023/05/23 09:08:25;;;;;;;13.23;7.50;;;15.60;99.90;;;;;;5025951;28;20058;-58
2023/05/23 09:10:51;;;;;;;11.18;5.90;;;15.70;99.90;;;;;;5023682;28;20523;-57
2023/05/23 09:13:19;;;;;;;19.92;7.70;;;15.70;99.90;;;;;;5023540;28;20051;-58
2023/05/23 09:16:03;;;;;;;17.67;9.02;;;15.80;99.90;;;;;;5024459;28;20108;-57
2023/05/23 09:18:36;;;;;;;11.85;6.60;;;15.80;99.90;;;;;;5025629;28;20099;-57
2023/05/23 09:21:02;;;;;;;13.82;7.25;;;15.90;99.90;;;;;;5023645;28;20053;-57
2023/05/23 09:23:32;;;;;;;9.20;4.72;;;15.90;99.90;;;;;;5006789;28;20647;-57
2023/05/23 09:26:03;;;;;;;8.07;4.65;;;15.90;99.90;;;;;;5023822;28;20048;-57
2023/05/23 09:28:31;;;;;;;9.07;4.93;;;15.90;99.90;;;;;;5023815;28;20046;-57
2023/05/23 09:31:00;;;;;;;13.10;6.05;;;15.90;99.90;;;;;;5022548;28;20094;-57
2023/05/23 09:33:49;;;;;;;11.63;5.57;;;15.90;99.90;;;;;;5025167;28;20519;-57
2023/05/23 09:36:16;;;;;;;15.40;7.40;;;16.00;99.90;;;;;;5021397;28;20049;-57
2023/05/23 09:38:43;;;;;;;7.72;3.15;;;16.00;99.90;;;;;;5024832;28;20523;-57
2023/05/23 09:41:12;;;;;;;7.53;4.93;;;16.00;99.90;;;;;;5023268;28;20095;-57
2023/05/23 09:44:03;;;;;;;13.40;6.22;;;15.90;99.90;;;;;;5025033;28;20121;-57
2023/05/23 09:46:29;;;;;;;13.60;6.18;;;15.90;99.90;;;;;;5022697;28;20373;-57
2023/05/23 09:48:55;;;;;;;13.98;5.70;;;15.90;99.90;;;;;;5024823;28;20418;-57
2023/05/23 09:51:22;;;;;;;12.50;6.93;;;15.80;99.90;;;;;;5022282;28;20057;-57
2023/05/23 09:53:49;;;;;;;11.88;6.63;;;15.90;99.90;;;;;;5021323;28;20037;-57
2023/05/23 09:56:18;;;;;;;12.80;7.03;;;16.00;99.90;;;;;;5021802;28;20041;-57
2023/05/23 09:58:47;;;;;;;10.63;6.68;;;16.10;99.90;;;;;;5055941;28;20105;-57
2023/05/23 10:01:13;;;;;;;11.48;5.97;;;16.20;99.90;;;;;;5023973;28;20042;-58
2023/05/23 10:03:54;;;;;;;11.07;7.30;;;16.20;99.90;;;;;;5024070;28;20104;-57
2023/05/23 10:06:25;;;;;;;9.55;4.90;;;16.20;99.90;;;;;;5024699;28;20047;-57
2023/05/23 10:08:58;;;;;;;10.10;6.53;;;16.10;99.90;;;;;;5023359;28;20053;-57
2023/05/23 10:11:58;;;;;;;8.07;4.65;;;16.20;99.90;;;;;;5021243;28;20125;-57
2023/05/23 10:14:27;;;;;;;12.25;5.20;;;15.90;99.90;;;;;;5022575;28;20037;-57
2023/05/23 10:17:02;;;;;;;16.23;6.75;;;15.80;99.90;;;;;;5024545;28;21136;-57
2023/05/23 10:19:45;;;;;;;16.30;7.95;;;15.80;99.90;;;;;;5022618;28;20077;-57
2023/05/23 10:22:13;;;;;;;16.00;9.30;;;15.90;99.90;;;;;;5020898;28;20042;-57
2023/05/23 10:24:39;;;;;;;17.52;8.30;;;15.90;99.90;;;;;;5024067;28;20564;-57
2023/05/23 10:27:06;;;;;;;8.02;5.70;;;16.00;99.90;;;;;;5021845;28;20049;-57
2023/05/23 10:29:32;;;;;;;14.73;8.57;;;16.10;99.90;;;;;;5023398;28;20203;-58
2023/05/23 10:32:01;;;;;;;13.55;8.13;;;16.20;99.90;;;;;;5021957;28;20042;-57
2023/05/23 10:34:56;;;;;;;14.48;8.98;;;16.20;99.90;;;;;;5024830;28;20057;-57
2023/05/23 10:37:32;;;;;;;14.70;8.75;;;16.20;99.90;;;;;;5023635;28;20054;-57
2023/05/23 10:40:07;;;;;;;20.98;8.38;;;16.10;99.90;;;;;;5021147;28;20053;-58
2023/05/23 10:42:53;;;;;;;15.00;7.47;;;16.20;99.90;;;;;;5022406;28;20095;-57
2023/05/23 10:45:25;;;;;;;12.77;8.48;;;16.20;99.90;;;;;;5022933;28;20599;-57
2023/05/23 10:47:52;;;;;;;13.20;6.55;;;16.30;99.90;;;;;;5024795;28;20528;-57
2023/05/23 10:50:32;;;;;;;17.50;9.70;;;16.40;99.90;;;;;;5024060;28;20050;-57
2023/05/23 10:53:03;;;;;;;15.43;8.52;;;16.60;99.90;;;;;;5022116;28;20602;-57
2023/05/23 10:55:36;;;;;;;6.90;4.15;;;16.60;99.90;;;;;;5023720;28;20052;-57
2023/05/23 10:58:20;;;;;;;10.43;8.07;;;16.50;99.90;;;;;;5025796;28;20049;-57
2023/05/23 11:00:54;;;;;;;16.17;7.82;;;16.40;99.90;;;;;;5025177;28;20463;-57
2023/05/23 11:03:48;;;;;;;15.20;6.38;;;16.30;99.90;;;;;;5023053;28;20151;-57
2023/05/23 11:06:31;;;;;;;12.23;7.60;;;16.30;99.90;;;;;;5023642;28;20131;-58
2023/05/23 11:09:20;;;;;;;13.38;7.25;;;16.40;99.90;;;;;;5025260;28;20125;-57
2023/05/23 11:12:06;;;;;;;11.02;6.03;;;16.40;99.90;;;;;;5024452;28;20269;-57
2023/05/23 11:14:36;;;;;;;35.00;8.77;;;16.40;99.90;;;;;;5028084;28;20125;-57
2023/05/23 11:17:11;;;;;;;13.55;7.45;;;16.30;99.90;;;;;;5019914;28;20133;-58
2023/05/23 11:19:38;;;;;;;12.68;8.10;;;16.40;99.90;;;;;;5023421;28;20148;-58
2023/05/23 11:22:07;;;;;;;10.95;7.50;;;16.50;99.90;;;;;;5018940;28;20050;-57
2023/05/23 11:24:51;;;;;;;14.88;8.25;;;16.40;99.90;;;;;;5026363;28;20044;-57
2023/05/23 11:27:38;;;;;;;22.67;10.00;;;16.40;99.90;;;;;;5020869;28;20619;-57
2023/05/23 11:30:04;;;;;;;29.35;8.63;;;16.40;99.90;;;;;;5023286;28;20053;-58
2023/05/23 11:32:30;;;;;;;9.48;6.03;;;16.40;99.90;;;;;;5019757;28;20428;-57
2023/05/23 11:35:01;;;;;;;9.60;6.93;;;16.40;99.90;;;;;;5054869;28;20117;-57
2023/05/23 11:37:27;;;;;;;12.82;7.47;;;16.40;99.90;;;;;;5021082;28;20045;-57
2023/05/23 11:39:53;;;;;;;13.95;6.70;;;16.30;99.90;;;;;;5022359;28;20046;-57
2023/05/23 11:42:19;;;;;;;16.52;6.97;;;16.30;99.90;;;;;;5019783;28;20653;-57
2023/05/23 11:44:49;;;;;;;17.95;8.02;;;16.20;99.90;;;;;;5025050;28;20045;-57
2023/05/23 11:47:15;;;;;;;13.45;6.82;;;16.20;99.90;;;;;;5024902;28;20088;-57
2023/05/23 11:49:44;;;;;;;8.75;7.03;;;16.30;99.90;;;;;;5025717;28;20045;-57
2023/05/23 11:52:10;;;;;;;11.85;6.95;;;16.30;99.90;;;;;;5024602;28;20064;-57
2023/05/23 11:54:36;;;;;;;13.68;6.55;;;16.40;99.90;;;;;;5021140;28;20419;-57
2023/05/23 11:57:02;;;;;;;9.07;5.25;;;16.30;99.90;;;;;;5018970;28;20093;-57
2023/05/23 11:59:28;;;;;;;16.23;8.07;;;16.30;99.90;;;;;;5021616;28;21248;-57
2023/05/23 12:01:55;;;;;;;11.77;6.65;;;16.20;99.90;;;;;;5021699;28;20066;-57
2023/05/23 12:04:20;;;;;;;14.65;7.78;;;16.20;99.90;;;;;;5021147;28;20065;-57
2023/05/23 12:06:48;;;;;;;14.05;7.45;;;16.20;99.90;;;;;;5020734;28;20534;-57
2023/05/23 12:09:14;;;;;;;13.50;9.35;;;16.20;99.90;;;;;;5015114;28;20407;-57
2023/05/23 12:11:41;;;;;;;13.95;7.35;;;16.20;99.90;;;;;;5020643;28;20058;-57
2023/05/23 12:14:08;;;;;;;11.23;4.47;;;16.20;99.90;;;;;;5016876;28;20065;-57
2023/05/23 12:16:35;;;;;;;13.40;7.82;;;16.30;99.90;;;;;;5017418;28;20042;-57
2023/05/23 12:19:02;;;;;;;14.88;7.82;;;16.30;99.90;;;;;;5021957;28;20038;-57
2023/05/23 12:21:45;;;;;;;15.07;8.40;;;16.60;99.90;;;;;;5020510;28;20053;-57
2023/05/23 12:24:20;;;;;;;18.80;7.75;;;16.80;99.90;;;;;;5010653;28;20630;-58
2023/05/23 12:26:54;;;;;;;14.93;8.15;;;17.10;99.90;;;;;;5017932;28;20080;-58
2023/05/23 12:29:34;;;;;;;15.02;8.32;;;17.30;99.90;;;;;;5017850;28;20221;-57
2023/05/23 12:32:01;;;;;;;14.43;8.80;;;17.20;99.90;;;;;;5019223;28;20038;-57
2023/05/23 12:34:27;;;;;;;15.88;9.15;;;17.10;99.90;;;;;;5015672;28;20065;-57
2023/05/23 12:36:57;;;;;;;12.45;8.48;;;16.90;99.90;;;;;;5020292;28;20061;-58
2023/05/23 12:39:32;;;;;;;11.23;8.25;;;16.90;99.90;;;;;;5022943;28;20494;-58